createdAt,value
2019-05-07T00:00:47.048Z,11.50
2019-05-07T00:03:16.926Z,11.50
2019-05-07T00:05:46.787Z,11.50
2019-05-07T00:08:16.606Z,11.50
2019-05-07T00:10:46.489Z,11.50
2019-05-07T00:13:16.361Z,11.50
2019-05-07T00:15:46.247Z,11.50
2019-05-07T00:18:17.179Z,11.50
2019-05-07T00:20:47.068Z,11.50
2019-05-07T00:23:16.889Z,11.50
2019-05-07T00:25:46.698Z,11.50
2019-05-07T00:28:16.570Z,11.50
2019-05-07T00:30:46.357Z,11.50
2019-05-07T00:33:16.236Z,11.50
2019-05-07T00:35:52.937Z,11.40
2019-05-07T00:38:23.752Z,11.40
2019-05-07T00:40:55.183Z,11.40
2019-05-07T00:43:26.818Z,11.30
2019-05-07T00:45:58.249Z,11.40
2019-05-07T00:48:28.103Z,11.30
2019-05-07T00:50:59.572Z,11.30
2019-05-07T00:53:29.386Z,11.30
2019-05-07T00:55:59.262Z,11.30
2019-05-07T00:58:29.097Z,11.30
2019-05-07T01:00:58.985Z,11.30
2019-05-07T01:03:28.866Z,11.30
2019-05-07T01:06:01.566Z,11.30
2019-05-07T01:08:32.176Z,11.30
2019-05-07T01:11:02.293Z,11.30
2019-05-07T01:13:32.367Z,11.30
2019-05-07T01:16:02.562Z,11.20
2019-05-07T01:18:33.679Z,11.20
2019-05-07T01:21:03.559Z,11.20
2019-05-07T01:23:34.364Z,11.20
2019-05-07T01:26:04.330Z,11.10
2019-05-07T01:28:52.876Z,11.20
2019-05-07T01:31:24.812Z,11.10
2019-05-07T01:33:59.004Z,11.10
2019-05-07T01:36:28.869Z,11.10
2019-05-07T01:38:58.851Z,11.00
2019-05-07T01:41:29.152Z,11.10
2019-05-07T01:43:58.939Z,11.10
2019-05-07T01:46:28.810Z,11.00
2019-05-07T01:49:03.075Z,11.00
2019-05-07T01:51:33.100Z,11.00
2019-05-07T01:54:02.896Z,11.00
2019-05-07T01:56:33.214Z,11.00
2019-05-07T01:59:03.157Z,10.90
2019-05-07T02:01:35.775Z,11.00
2019-05-07T02:04:08.713Z,10.90
2019-05-07T02:06:57.347Z,11.00
2019-05-07T02:09:47.376Z,10.90
2019-05-07T02:12:24.893Z,10.90
2019-05-07T02:14:54.778Z,10.90
2019-05-07T02:17:24.624Z,10.90
2019-05-07T02:19:54.418Z,10.90
2019-05-07T02:22:24.295Z,10.90
2019-05-07T02:24:54.174Z,10.90
2019-05-07T02:27:23.992Z,10.90
2019-05-07T02:29:54.925Z,10.90
2019-05-07T02:32:24.745Z,10.90
2019-05-07T02:34:54.818Z,10.80
2019-05-07T02:37:33.515Z,10.80
2019-05-07T02:39:59.403Z,10.90
2019-05-07T02:42:29.199Z,10.80
2019-05-07T02:45:04.501Z,10.80
2019-05-07T02:47:34.969Z,10.80
2019-05-07T02:50:07.584Z,10.80
2019-05-07T02:52:55.655Z,10.80
2019-05-07T02:55:33.844Z,10.80
2019-05-07T02:58:04.681Z,10.80
2019-05-07T03:00:34.636Z,10.80
2019-05-07T03:03:04.731Z,10.70
2019-05-07T03:05:35.203Z,10.80
2019-05-07T03:08:05.322Z,10.70
2019-05-07T03:10:35.239Z,10.70
2019-05-07T03:13:06.346Z,10.70
2019-05-07T03:15:36.140Z,10.70
2019-05-07T03:18:06.096Z,10.70
2019-05-07T03:20:39.108Z,10.70
2019-05-07T03:23:13.189Z,10.70
2019-05-07T03:25:54.199Z,10.70
2019-05-07T03:28:26.322Z,10.70
2019-05-07T03:31:05.307Z,10.70
2019-05-07T03:33:36.670Z,10.70
2019-05-07T03:36:07.959Z,10.70
2019-05-07T03:38:38.036Z,10.70
2019-05-07T03:41:07.884Z,10.60
2019-05-07T03:43:37.655Z,10.60
2019-05-07T03:46:14.920Z,10.60
2019-05-07T03:48:45.897Z,10.60
2019-05-07T03:51:16.856Z,10.60
2019-05-07T03:53:46.697Z,10.60
2019-05-07T03:56:16.574Z,10.60
2019-05-07T03:58:46.403Z,10.60
2019-05-07T04:01:16.273Z,10.60
2019-05-07T04:03:46.130Z,10.60
2019-05-07T04:06:15.929Z,10.60
2019-05-07T04:08:45.757Z,10.60
2019-05-07T04:11:15.575Z,10.50
2019-05-07T04:13:45.434Z,10.60
2019-05-07T04:16:15.240Z,10.50
2019-05-07T04:18:45.104Z,10.50
2019-05-07T04:21:14.948Z,10.50
2019-05-07T04:23:44.907Z,10.40
2019-05-07T04:26:16.457Z,10.40
2019-05-07T04:28:59.792Z,10.40
2019-05-07T04:31:34.300Z,10.40
2019-05-07T04:34:05.153Z,10.40
2019-05-07T04:36:36.059Z,10.30
2019-05-07T04:39:08.245Z,10.30
2019-05-07T04:41:37.999Z,10.30
2019-05-07T04:44:07.854Z,10.30
2019-05-07T04:46:37.716Z,10.30
2019-05-07T04:49:13.013Z,10.30
2019-05-07T04:51:47.100Z,10.30
2019-05-07T04:54:17.973Z,10.20
2019-05-07T04:56:47.782Z,10.20
2019-05-07T04:59:18.548Z,10.20
2019-05-07T05:01:53.341Z,10.20
2019-05-07T05:04:30.303Z,10.20
2019-05-07T05:06:54.705Z,10.20
2019-05-07T05:09:25.663Z,10.20
2019-05-07T05:11:55.560Z,10.20
2019-05-07T05:14:25.408Z,10.20
2019-05-07T05:16:55.160Z,10.20
2019-05-07T05:19:25.052Z,10.20
2019-05-07T05:22:12.983Z,10.20
2019-05-07T05:24:47.347Z,10.20
2019-05-07T05:27:17.247Z,10.20
2019-05-07T05:29:47.163Z,10.20
2019-05-07T05:32:17.033Z,10.20
2019-05-07T05:34:46.860Z,10.20
2019-05-07T05:37:16.727Z,10.20
2019-05-07T05:39:46.581Z,10.20
2019-05-07T05:42:18.129Z,10.30
2019-05-07T05:44:47.930Z,10.20
2019-05-07T05:47:17.721Z,10.20
2019-05-07T05:49:47.531Z,10.20
2019-05-07T05:52:32.859Z,10.20
2019-05-07T05:55:04.066Z,10.30
2019-05-07T05:57:42.434Z,10.30
2019-05-07T06:00:14.361Z,10.30
2019-05-07T06:02:48.712Z,10.40
2019-05-07T06:05:36.387Z,10.40
2019-05-07T06:08:17.669Z,10.40
2019-05-07T06:11:04.819Z,10.40
2019-05-07T06:13:42.282Z,10.40
2019-05-07T06:16:13.661Z,10.40
2019-05-07T06:18:52.601Z,10.40
2019-05-07T06:21:41.863Z,10.40
2019-05-07T06:24:13.556Z,10.50
2019-05-07T06:26:43.290Z,10.40
2019-05-07T06:29:19.932Z,10.50
2019-05-07T06:31:49.963Z,10.50
2019-05-07T06:34:21.891Z,10.50
2019-05-07T06:36:52.673Z,10.50
2019-05-07T06:39:24.141Z,10.50
2019-05-07T06:42:12.666Z,10.50
2019-05-07T06:44:42.805Z,10.50
2019-05-07T06:47:13.143Z,10.60
2019-05-07T06:50:03.937Z,10.50
2019-05-07T06:52:33.840Z,10.50
2019-05-07T06:55:04.059Z,10.60
2019-05-07T06:57:34.620Z,10.50
2019-05-07T07:00:13.907Z,10.60
2019-05-07T07:02:52.473Z,10.60
2019-05-07T07:05:33.174Z,10.60
2019-05-07T07:08:24.685Z,10.60
2019-05-07T07:11:12.926Z,10.60
2019-05-07T07:13:43.017Z,10.60
2019-05-07T07:16:12.839Z,10.70
2019-05-07T07:18:52.119Z,10.70
2019-05-07T07:21:14.089Z,10.70
2019-05-07T07:23:44.962Z,10.70
2019-05-07T07:26:14.719Z,10.70
2019-05-07T07:28:45.490Z,10.70
2019-05-07T07:31:16.929Z,10.70
2019-05-07T07:33:48.344Z,10.80
2019-05-07T07:36:19.308Z,10.80
2019-05-07T07:38:49.142Z,10.80
2019-05-07T07:41:23.652Z,10.80
2019-05-07T07:43:53.610Z,10.80
2019-05-07T07:46:23.522Z,10.80
2019-05-07T07:49:06.772Z,10.80
2019-05-07T07:51:38.108Z,10.90
2019-05-07T07:53:56.657Z,10.90
2019-05-07T07:56:47.882Z,10.90
2019-05-07T07:59:07.863Z,10.90
2019-05-07T08:01:54.530Z,10.90
2019-05-07T08:04:24.427Z,11.00
2019-05-07T08:07:03.628Z,11.00
2019-05-07T08:09:35.112Z,11.00
2019-05-07T08:12:09.369Z,11.00
2019-05-07T08:14:42.654Z,11.00
2019-05-07T08:17:15.020Z,11.10
2019-05-07T08:19:51.954Z,11.10
2019-05-07T08:22:23.572Z,11.10
2019-05-07T08:24:54.778Z,11.10
2019-05-07T08:27:24.727Z,11.10
2019-05-07T08:30:02.995Z,11.10
2019-05-07T08:32:43.459Z,11.20
2019-05-07T08:35:15.865Z,11.20
2019-05-07T08:37:45.751Z,11.20
2019-05-07T08:40:15.953Z,11.20
2019-05-07T08:42:46.025Z,11.20
2019-05-07T08:45:35.100Z,11.20
2019-05-07T08:48:14.437Z,11.20
2019-05-07T08:50:43.614Z,11.20
2019-05-07T08:53:15.016Z,11.30
2019-05-07T08:56:00.288Z,11.30
2019-05-07T08:58:33.157Z,11.30
2019-05-07T09:01:14.559Z,11.30
2019-05-07T09:03:44.509Z,11.30
2019-05-07T09:06:17.671Z,11.30
2019-05-07T09:08:57.254Z,11.40
2019-05-07T09:11:28.758Z,11.40
2019-05-07T09:14:06.082Z,11.40
2019-05-07T09:16:36.176Z,11.40
2019-05-07T09:19:15.256Z,11.50
2019-05-07T09:21:45.149Z,11.40
2019-05-07T09:24:14.997Z,11.50
2019-05-07T09:27:03.091Z,11.50
2019-05-07T09:29:54.318Z,11.60
2019-05-07T09:32:34.769Z,11.60
2019-05-07T09:35:12.628Z,11.70
2019-05-07T09:37:42.732Z,11.70
2019-05-07T09:40:15.475Z,11.70
2019-05-07T09:42:48.541Z,11.70
2019-05-07T09:45:32.644Z,11.80
2019-05-07T09:48:11.777Z,11.70
2019-05-07T09:50:42.909Z,11.80
2019-05-07T09:53:22.833Z,11.80
2019-05-07T09:55:58.567Z,11.80
2019-05-07T09:58:36.770Z,11.80
2019-05-07T10:01:41.164Z,11.90
2019-05-07T10:05:32.084Z,11.90
2019-05-07T10:07:38.248Z,11.90
2019-05-07T10:10:11.977Z,12.00
2019-05-07T10:12:44.060Z,12.00
2019-05-07T10:15:14.279Z,12.00
2019-05-07T10:17:48.566Z,12.10
2019-05-07T10:20:22.876Z,12.10
2019-05-07T10:23:03.823Z,12.20
2019-05-07T10:25:42.554Z,12.20
2019-05-07T10:28:18.772Z,12.20
2019-05-07T10:30:54.218Z,12.20
2019-05-07T10:33:48.994Z,12.30
2019-05-07T10:36:33.412Z,12.30
2019-05-07T10:39:08.862Z,12.30
2019-05-07T10:41:42.560Z,12.30
2019-05-07T10:44:13.627Z,12.30
2019-05-07T10:47:12.113Z,12.30
2019-05-07T10:52:42.125Z,12.30
2019-05-07T10:55:12.000Z,12.30
2019-05-07T10:57:46.533Z,12.30
2019-05-07T11:00:32.925Z,12.40
2019-05-07T11:03:08.289Z,12.40
2019-05-07T11:05:41.710Z,12.40
2019-05-07T11:08:11.457Z,12.50
2019-05-07T11:10:44.318Z,12.50
2019-05-07T11:13:23.257Z,12.50
2019-05-07T11:15:54.694Z,12.50
2019-05-07T11:18:26.319Z,12.50
2019-05-07T11:21:02.529Z,12.60
2019-05-07T11:23:32.827Z,12.60
2019-05-07T11:26:03.420Z,12.60
2019-05-07T11:28:36.204Z,12.60
2019-05-07T11:31:12.400Z,12.60
2019-05-07T11:33:46.710Z,12.60
2019-05-07T11:36:16.345Z,12.60
2019-05-07T11:38:52.887Z,12.70
2019-05-07T11:41:24.337Z,12.60
2019-05-07T11:43:58.861Z,12.70
2019-05-07T11:46:36.240Z,12.70
2019-05-07T11:49:07.808Z,12.70
2019-05-07T11:51:48.508Z,12.70
2019-05-07T11:54:18.493Z,12.70
2019-05-07T11:56:51.862Z,12.70
2019-05-07T11:59:27.317Z,12.70
2019-05-07T12:01:59.104Z,12.80
2019-05-07T12:04:29.072Z,12.80
2019-05-07T12:06:58.961Z,12.80
2019-05-07T12:09:28.957Z,12.80
2019-05-07T12:12:04.961Z,12.80
2019-05-07T12:14:34.944Z,12.80
2019-05-07T12:17:06.302Z,12.90
2019-05-07T12:19:44.395Z,12.90
2019-05-07T12:22:17.386Z,13.00
2019-05-07T12:24:52.032Z,13.00
2019-05-07T12:27:24.295Z,13.00
2019-05-07T12:29:57.512Z,13.10
2019-05-07T12:32:29.129Z,13.10
2019-05-07T12:35:31.305Z,13.20
2019-05-07T12:37:54.659Z,13.20
2019-05-07T12:40:22.403Z,13.20
2019-05-07T12:42:48.984Z,13.30
2019-05-07T12:45:32.703Z,13.30
2019-05-07T12:47:53.645Z,13.30
2019-05-07T12:50:25.143Z,13.30
2019-05-07T12:53:02.075Z,13.30
2019-05-07T12:55:34.232Z,13.40
2019-05-07T12:58:12.479Z,13.30
2019-05-07T13:00:52.068Z,13.40
2019-05-07T13:03:29.434Z,13.40
2019-05-07T13:05:59.500Z,13.40
2019-05-07T13:08:32.921Z,13.40
2019-05-07T13:11:07.873Z,13.40
2019-05-07T13:13:43.656Z,13.40
2019-05-07T13:16:13.748Z,13.50
2019-05-07T13:18:46.484Z,13.40
2019-05-07T13:27:40.092Z,13.60
2019-05-07T13:30:14.654Z,13.60
2019-05-07T13:32:48.239Z,13.60
2019-05-07T13:35:30.872Z,13.70
2019-05-07T13:41:05.797Z,13.80
2019-05-07T13:44:14.250Z,13.90
2019-05-07T13:46:56.479Z,13.90
2019-05-07T13:49:32.346Z,14.00
2019-05-07T13:52:07.987Z,14.00
2019-05-07T13:54:52.530Z,14.00
2019-05-07T13:57:33.157Z,14.00
2019-05-07T14:00:12.865Z,14.00
2019-05-07T14:03:18.672Z,14.10
2019-05-07T14:05:21.763Z,14.10
2019-05-07T14:08:00.257Z,14.10
2019-05-07T14:10:44.558Z,14.10
2019-05-07T14:16:19.657Z,14.20
2019-05-07T14:19:05.611Z,14.10
2019-05-07T14:21:42.072Z,14.20
2019-05-07T14:24:15.589Z,14.20
2019-05-07T14:26:52.806Z,14.20
2019-05-07T14:29:25.204Z,14.20
2019-05-07T14:31:56.758Z,14.20
2019-05-07T14:34:31.979Z,14.20
2019-05-07T14:37:05.054Z,14.20
2019-05-07T14:39:38.325Z,14.20
2019-05-07T14:42:10.565Z,14.20
2019-05-07T14:44:48.673Z,14.20
2019-05-07T14:47:22.064Z,14.20
2019-05-07T14:49:52.881Z,14.20
2019-05-07T14:52:32.623Z,14.30
2019-05-07T14:54:55.999Z,14.30
2019-05-07T14:57:25.934Z,14.30
2019-05-07T15:00:13.996Z,14.30
2019-05-07T15:02:43.901Z,14.30
2019-05-07T15:05:14.099Z,14.30
2019-05-07T15:08:07.066Z,14.30
2019-05-07T15:10:28.054Z,14.30
2019-05-07T15:13:02.111Z,14.30
2019-05-07T15:15:35.766Z,14.30
2019-05-07T15:21:19.779Z,14.40
2019-05-07T15:23:54.137Z,14.40
2019-05-07T15:26:27.576Z,14.40
2019-05-07T15:28:59.191Z,14.40
2019-05-07T15:31:36.579Z,14.40
2019-05-07T15:34:12.363Z,14.40
2019-05-07T15:36:58.526Z,14.40
2019-05-07T15:39:44.059Z,14.40
2019-05-07T15:42:18.359Z,14.40
2019-05-07T15:44:48.233Z,14.40
2019-05-07T15:47:22.320Z,14.50
2019-05-07T15:49:57.138Z,14.50
2019-05-07T15:52:57.629Z,14.50
2019-05-07T15:55:18.054Z,14.50
2019-05-07T15:57:49.386Z,14.50
2019-05-07T16:00:22.395Z,14.50
2019-05-07T16:03:12.074Z,14.50
2019-05-07T16:05:44.615Z,14.50
2019-05-07T16:08:22.670Z,14.50
2019-05-07T16:10:57.231Z,14.50
2019-05-07T16:13:33.584Z,14.50
2019-05-07T16:16:02.300Z,14.50
2019-05-07T16:22:07.881Z,14.50
2019-05-07T16:24:39.408Z,14.50
2019-05-07T16:27:12.112Z,14.50
2019-05-07T16:29:42.265Z,14.50
2019-05-07T16:32:13.842Z,14.50
2019-05-07T16:34:44.689Z,14.50
2019-05-07T16:37:16.504Z,14.50
2019-05-07T16:39:48.509Z,14.50
2019-05-07T16:42:25.277Z,14.60
2019-05-07T16:44:59.753Z,14.60
2019-05-07T16:47:31.137Z,14.60
2019-05-07T16:50:04.259Z,14.60
2019-05-07T16:52:35.139Z,14.60
2019-05-07T16:55:15.977Z,14.60
2019-05-07T16:58:08.371Z,14.60
2019-05-07T17:00:35.256Z,14.60
2019-05-07T17:03:12.012Z,14.60
2019-05-07T17:05:48.006Z,14.70
2019-05-07T17:08:22.245Z,14.60
2019-05-07T17:11:06.543Z,14.60
2019-05-07T17:13:36.753Z,14.70
2019-05-07T17:16:15.780Z,14.60
2019-05-07T17:18:51.863Z,14.60
2019-05-07T17:21:27.911Z,14.70
2019-05-07T17:24:02.692Z,14.70
2019-05-07T17:26:42.153Z,14.60
2019-05-07T17:29:13.484Z,14.70
2019-05-07T17:31:52.729Z,14.60
2019-05-07T17:34:36.522Z,14.60
2019-05-07T17:37:09.399Z,14.60
2019-05-07T17:39:42.629Z,14.60
2019-05-07T17:42:22.400Z,14.60
2019-05-07T17:44:49.380Z,14.60
2019-05-07T17:47:19.271Z,14.60
2019-05-07T17:49:52.754Z,14.60
2019-05-07T17:52:22.914Z,14.60
2019-05-07T17:54:54.027Z,14.60
2019-05-07T17:57:24.008Z,14.60
2019-05-07T17:59:54.090Z,14.60
2019-05-07T18:02:38.880Z,14.60
2019-05-07T18:05:09.343Z,14.60
2019-05-07T18:07:39.518Z,14.60
2019-05-07T18:10:14.281Z,14.60
2019-05-07T18:12:45.427Z,14.60
2019-05-07T18:15:18.675Z,14.60
2019-05-07T18:18:02.950Z,14.60
2019-05-07T18:20:34.044Z,14.60
2019-05-07T18:23:16.768Z,14.60
2019-05-07T18:25:46.690Z,14.50
2019-05-07T18:28:16.628Z,14.50
2019-05-07T18:30:50.809Z,14.50
2019-05-07T18:33:31.160Z,14.50
2019-05-07T18:36:02.828Z,14.50
2019-05-07T18:38:48.672Z,14.50
2019-05-07T18:41:18.648Z,14.50
2019-05-07T18:43:51.988Z,14.50
2019-05-07T18:46:25.979Z,14.50
2019-05-07T18:48:58.724Z,14.50
2019-05-07T18:51:34.910Z,14.50
2019-05-07T18:54:04.842Z,14.50
2019-05-07T18:56:34.825Z,14.50
2019-05-07T18:59:04.716Z,14.50
2019-05-07T19:01:36.338Z,14.50
2019-05-07T19:04:06.432Z,14.50
2019-05-07T19:06:38.857Z,14.50
2019-05-07T19:09:28.635Z,14.40
2019-05-07T19:12:07.315Z,14.40
2019-05-07T19:14:38.420Z,14.40
2019-05-07T19:17:18.142Z,14.40
2019-05-07T19:19:49.698Z,14.40
2019-05-07T19:22:19.635Z,14.40
2019-05-07T19:24:52.798Z,14.40
2019-05-07T19:27:25.725Z,14.40
2019-05-07T19:29:55.601Z,14.30
2019-05-07T19:32:25.498Z,14.30
2019-05-07T19:34:55.469Z,14.30
2019-05-07T19:37:25.354Z,14.30
2019-05-07T19:39:55.261Z,14.30
2019-05-07T19:42:25.221Z,14.30
2019-05-07T19:44:57.050Z,14.30
2019-05-07T19:47:26.646Z,14.30
2019-05-07T19:49:58.516Z,14.20
2019-05-07T19:52:30.231Z,14.30
2019-05-07T19:55:04.686Z,14.20
2019-05-07T19:57:35.887Z,14.30
2019-05-07T20:00:12.148Z,14.20
2019-05-07T20:02:49.760Z,14.20
2019-05-07T20:05:19.637Z,14.20
2019-05-07T20:07:55.216Z,14.20
2019-05-07T20:10:23.769Z,14.20
2019-05-07T20:12:54.371Z,14.20
2019-05-07T20:15:25.779Z,14.20
2019-05-07T20:17:55.841Z,14.20
2019-05-07T20:20:27.227Z,14.20
2019-05-07T20:22:58.687Z,14.20
2019-05-07T20:25:33.588Z,14.20
2019-05-07T20:28:04.193Z,14.20
2019-05-07T20:30:34.072Z,14.20
2019-05-07T20:33:03.933Z,14.20
2019-05-07T20:35:37.206Z,14.20
2019-05-07T20:38:05.468Z,14.10
2019-05-07T20:40:35.340Z,14.10
2019-05-07T20:43:05.317Z,14.10
2019-05-07T20:45:35.174Z,14.10
2019-05-07T20:48:06.292Z,14.10
2019-05-07T20:50:36.159Z,14.10
2019-05-07T20:53:06.140Z,14.10
2019-05-07T20:55:49.985Z,14.10
2019-05-07T20:58:22.032Z,14.00
2019-05-07T21:00:52.596Z,14.00
2019-05-07T21:03:25.908Z,14.00
2019-05-07T21:05:58.852Z,14.00
2019-05-07T21:08:28.835Z,14.00
2019-05-07T21:10:58.720Z,14.00
2019-05-07T21:13:32.441Z,14.00
2019-05-07T21:16:00.154Z,14.00
2019-05-07T21:18:32.553Z,13.90
2019-05-07T21:21:02.122Z,14.00
2019-05-07T21:23:34.597Z,13.90
2019-05-07T21:26:04.505Z,13.90
2019-05-07T21:28:36.440Z,13.90
2019-05-07T21:31:06.409Z,13.90
2019-05-07T21:33:36.293Z,13.90
2019-05-07T21:36:06.210Z,13.90
2019-05-07T21:38:36.176Z,13.90
2019-05-07T21:41:06.938Z,13.90
2019-05-07T21:43:36.839Z,13.90
2019-05-07T21:46:08.230Z,13.90
2019-05-07T21:48:42.055Z,13.90
2019-05-07T21:51:12.321Z,13.90
2019-05-07T21:53:43.920Z,13.90
2019-05-07T21:56:22.807Z,13.80
2019-05-07T21:58:57.472Z,13.80
2019-05-07T22:01:29.022Z,13.80
2019-05-07T22:04:01.743Z,13.80
2019-05-07T22:06:30.986Z,13.80
2019-05-07T22:09:01.974Z,13.80
2019-05-07T22:11:33.687Z,13.80
2019-05-07T22:14:06.529Z,13.80
2019-05-07T22:16:36.425Z,13.80
2019-05-07T22:19:07.379Z,13.80
2019-05-07T22:21:37.257Z,13.70
2019-05-07T22:24:08.138Z,13.70
2019-05-07T22:26:38.077Z,13.70
2019-05-07T22:29:12.566Z,13.70
2019-05-07T22:31:44.226Z,13.70
2019-05-07T22:34:25.227Z,13.70
2019-05-07T22:36:56.711Z,13.70
2019-05-07T22:39:33.958Z,13.70
2019-05-07T22:42:05.400Z,13.60
2019-05-07T22:44:35.421Z,13.60
2019-05-07T22:47:06.937Z,13.60
2019-05-07T22:49:41.988Z,13.60
2019-05-07T22:52:12.762Z,13.60
2019-05-07T22:54:42.822Z,13.60
2019-05-07T22:57:29.316Z,13.60
2019-05-07T23:00:01.965Z,13.60
2019-05-07T23:02:32.121Z,13.60
2019-05-07T23:05:02.840Z,13.60
2019-05-07T23:07:33.212Z,13.60
2019-05-07T23:10:03.401Z,13.60
2019-05-07T23:12:33.332Z,13.50
2019-05-07T23:15:03.335Z,13.50
2019-05-07T23:17:34.256Z,13.50
2019-05-07T23:20:05.953Z,13.50
2019-05-07T23:22:35.855Z,13.50
2019-05-07T23:25:06.642Z,13.50
2019-05-07T23:27:36.602Z,13.50
2019-05-07T23:30:07.090Z,13.50
2019-05-07T23:32:37.000Z,13.50
2019-05-07T23:35:07.091Z,13.50
2019-05-07T23:37:36.991Z,13.40
2019-05-07T23:40:16.747Z,13.40
2019-05-07T23:42:48.249Z,13.40
2019-05-07T23:45:18.144Z,13.40
2019-05-07T23:48:06.067Z,13.40
2019-05-07T23:50:36.001Z,13.40
2019-05-07T23:53:05.807Z,13.40
2019-05-07T23:55:35.740Z,13.40
2019-05-07T23:58:05.612Z,13.40
